createdAt,value
2017-09-30T00:00:08.066Z,20.0
2017-09-30T00:01:09.691Z,20.1
2017-09-30T00:02:11.313Z,20.0
2017-09-30T00:03:12.939Z,20.1
2017-09-30T00:04:14.561Z,20.1
2017-09-30T00:05:16.184Z,20.1
2017-09-30T00:06:17.808Z,20.1
2017-09-30T00:07:19.427Z,20.0
2017-09-30T00:08:21.048Z,20.0
2017-09-30T00:09:22.671Z,20.1
2017-09-30T00:10:24.316Z,20.0
2017-09-30T00:11:25.936Z,20.1
2017-09-30T00:12:27.563Z,20.1
2017-09-30T00:13:29.186Z,20.1
2017-09-30T00:14:30.805Z,20.2
2017-09-30T00:15:32.426Z,20.1
2017-09-30T00:16:34.051Z,20.2
2017-09-30T00:17:35.675Z,20.1
2017-09-30T00:18:37.297Z,20.0
2017-09-30T00:19:38.918Z,20.0
2017-09-30T00:20:40.539Z,20.0
2017-09-30T00:21:42.164Z,19.9
2017-09-30T00:22:43.783Z,19.9
2017-09-30T00:23:45.405Z,19.9
2017-09-30T00:24:47.053Z,19.9
2017-09-30T00:25:48.649Z,19.9
2017-09-30T00:26:50.273Z,19.9
2017-09-30T00:27:51.892Z,19.9
2017-09-30T00:28:53.523Z,19.9
2017-09-30T00:29:55.134Z,19.9
2017-09-30T00:30:56.755Z,19.9
2017-09-30T00:31:58.376Z,20.0
2017-09-30T00:33:00.018Z,20.0
2017-09-30T00:34:01.640Z,20.0
2017-09-30T00:35:03.264Z,20.0
2017-09-30T00:36:04.883Z,20.0
2017-09-30T00:37:06.503Z,20.0
2017-09-30T00:38:08.125Z,20.0
2017-09-30T00:39:09.753Z,20.0
2017-09-30T00:40:11.371Z,20.1
2017-09-30T00:41:12.996Z,19.9
2017-09-30T00:42:14.615Z,19.9
2017-09-30T00:43:16.235Z,19.9
2017-09-30T00:44:17.859Z,20.0
2017-09-30T00:45:19.479Z,20.0
2017-09-30T00:46:21.102Z,20.0
2017-09-30T00:47:22.724Z,20.0
2017-09-30T00:48:24.349Z,20.0
2017-09-30T00:49:25.970Z,20.0
2017-09-30T00:50:27.593Z,20.0
2017-09-30T00:51:29.219Z,20.0
2017-09-30T00:52:30.839Z,20.0
2017-09-30T00:53:32.465Z,20.0
2017-09-30T00:54:34.087Z,20.0
2017-09-30T00:55:35.711Z,19.9
2017-09-30T00:56:37.334Z,20.0
2017-09-30T00:57:38.954Z,19.8
2017-09-30T00:58:40.576Z,19.9
2017-09-30T00:59:42.198Z,19.9
2017-09-30T01:00:43.834Z,19.9
2017-09-30T01:01:45.460Z,19.8
2017-09-30T01:02:47.109Z,19.9
2017-09-30T01:03:48.725Z,19.9
2017-09-30T01:04:50.350Z,19.8
2017-09-30T01:05:51.970Z,19.8
2017-09-30T01:06:53.592Z,19.7
2017-09-30T01:07:55.216Z,19.8
2017-09-30T01:08:56.839Z,19.8
2017-09-30T01:09:58.464Z,19.7
2017-09-30T01:11:00.084Z,19.8
2017-09-30T01:12:01.706Z,19.7
2017-09-30T01:13:03.326Z,19.7
2017-09-30T01:14:04.948Z,19.7
2017-09-30T01:15:06.572Z,19.7
2017-09-30T01:16:08.194Z,19.7
2017-09-30T01:17:09.820Z,19.7
2017-09-30T01:18:11.441Z,19.7
2017-09-30T01:19:13.061Z,19.7
2017-09-30T01:20:14.683Z,19.7
2017-09-30T01:21:16.306Z,19.8
2017-09-30T01:22:17.927Z,19.8
2017-09-30T01:23:19.553Z,19.7
2017-09-30T01:24:21.175Z,19.8
2017-09-30T01:25:22.799Z,19.7
2017-09-30T01:26:24.418Z,19.8
2017-09-30T01:27:26.049Z,19.7
2017-09-30T01:28:27.674Z,19.7
2017-09-30T01:29:29.301Z,19.6
2017-09-30T01:30:30.927Z,19.6
2017-09-30T01:31:32.551Z,19.6
2017-09-30T01:32:34.172Z,19.6
2017-09-30T01:33:35.794Z,19.4
2017-09-30T01:34:37.419Z,19.6
2017-09-30T01:35:39.044Z,19.5
2017-09-30T01:36:40.669Z,19.4
2017-09-30T01:37:42.293Z,19.4
2017-09-30T01:38:43.921Z,19.4
2017-09-30T01:39:45.543Z,19.4
2017-09-30T01:40:47.170Z,19.2
2017-09-30T01:41:48.794Z,19.2
2017-09-30T01:42:50.419Z,19.0
2017-09-30T01:43:52.045Z,19.1
2017-09-30T01:44:53.671Z,19.0
2017-09-30T01:45:55.297Z,19.0
2017-09-30T01:46:56.920Z,19.1
2017-09-30T01:47:58.541Z,19.0
2017-09-30T01:49:00.178Z,19.0
2017-09-30T01:50:01.803Z,19.1
2017-09-30T01:51:03.427Z,19.1
2017-09-30T01:52:05.053Z,18.9
2017-09-30T01:53:06.682Z,18.8
2017-09-30T01:54:08.304Z,18.6
2017-09-30T01:55:09.936Z,18.4
2017-09-30T01:56:11.586Z,18.3
2017-09-30T01:57:13.218Z,18.1
2017-09-30T01:58:14.836Z,18.2
2017-09-30T01:59:16.464Z,18.1
2017-09-30T02:00:18.091Z,18.2
2017-09-30T02:01:19.714Z,18.2
2017-09-30T02:02:21.338Z,18.3
2017-09-30T02:03:22.985Z,18.0
2017-09-30T02:04:24.591Z,17.9
2017-09-30T02:05:26.215Z,17.8
2017-09-30T02:06:27.838Z,17.6
2017-09-30T02:07:29.473Z,17.6
2017-09-30T02:08:31.089Z,17.6
2017-09-30T02:09:32.711Z,17.6
2017-09-30T02:10:34.336Z,17.6
2017-09-30T02:11:35.959Z,17.6
2017-09-30T02:12:37.585Z,17.6
2017-09-30T02:13:39.209Z,17.5
2017-09-30T02:14:40.832Z,17.6
2017-09-30T02:15:42.456Z,17.6
2017-09-30T02:16:44.080Z,17.6
2017-09-30T02:17:45.703Z,17.6
2017-09-30T02:18:47.326Z,17.6
2017-09-30T02:19:48.951Z,17.7
2017-09-30T02:20:50.576Z,17.8
2017-09-30T02:21:52.200Z,17.8
2017-09-30T02:22:53.827Z,18.0
2017-09-30T02:23:55.447Z,17.9
2017-09-30T02:24:57.070Z,17.9
2017-09-30T02:25:58.695Z,17.8
2017-09-30T02:27:00.319Z,17.8
2017-09-30T02:28:01.945Z,17.8
2017-09-30T02:29:03.574Z,17.8
2017-09-30T02:30:05.197Z,17.8
2017-09-30T02:31:06.819Z,17.8
2017-09-30T02:32:08.444Z,17.8
2017-09-30T02:33:10.068Z,17.9
2017-09-30T02:34:11.695Z,17.8
2017-09-30T02:35:13.318Z,17.7
2017-09-30T02:36:14.942Z,17.8
2017-09-30T02:37:16.563Z,17.8
2017-09-30T02:38:18.190Z,17.8
2017-09-30T02:39:19.810Z,17.8
2017-09-30T02:40:21.434Z,17.9
2017-09-30T02:41:23.056Z,17.9
2017-09-30T02:42:24.695Z,17.9
2017-09-30T02:43:26.310Z,17.9
2017-09-30T02:44:27.931Z,17.9
2017-09-30T02:45:29.556Z,17.9
2017-09-30T02:46:31.176Z,18.0
2017-09-30T02:47:32.806Z,17.9
2017-09-30T02:48:34.428Z,17.9
2017-09-30T02:49:36.055Z,17.9
2017-09-30T02:50:37.680Z,17.9
2017-09-30T02:51:39.303Z,17.8
2017-09-30T02:52:40.927Z,17.8
2017-09-30T02:53:42.549Z,17.8
2017-09-30T02:54:44.174Z,17.7
2017-09-30T02:55:45.798Z,17.8
2017-09-30T02:56:47.420Z,17.8
2017-09-30T02:57:49.046Z,17.7
2017-09-30T02:58:50.667Z,17.8
2017-09-30T02:59:52.294Z,17.8
2017-09-30T03:00:53.917Z,17.7
2017-09-30T03:01:55.542Z,17.8
2017-09-30T03:02:57.167Z,17.8
2017-09-30T03:03:58.791Z,17.8
2017-09-30T03:05:00.417Z,17.7
2017-09-30T03:06:02.041Z,17.7
2017-09-30T03:07:03.663Z,17.6
2017-09-30T03:08:05.289Z,17.7
2017-09-30T03:09:06.913Z,17.7
2017-09-30T03:10:08.538Z,17.6
2017-09-30T03:11:10.163Z,17.7
2017-09-30T03:12:11.788Z,17.7
2017-09-30T03:13:13.411Z,17.6
2017-09-30T03:14:15.052Z,17.6
2017-09-30T03:15:16.655Z,17.6
2017-09-30T03:16:18.278Z,17.6
2017-09-30T03:17:19.909Z,17.6
2017-09-30T03:18:21.533Z,17.5
2017-09-30T03:19:23.156Z,17.6
2017-09-30T03:20:24.777Z,17.5
2017-09-30T03:21:26.401Z,17.6
2017-09-30T03:22:28.023Z,17.5
2017-09-30T03:23:29.644Z,17.5
2017-09-30T03:24:31.269Z,17.5
2017-09-30T03:25:32.895Z,17.5
2017-09-30T03:26:34.520Z,17.5
2017-09-30T03:27:36.144Z,17.5
2017-09-30T03:28:37.768Z,17.6
2017-09-30T03:29:39.393Z,17.6
2017-09-30T03:30:41.016Z,17.6
2017-09-30T03:31:42.641Z,17.5
2017-09-30T03:32:44.267Z,17.5
2017-09-30T03:33:45.893Z,17.5
2017-09-30T03:34:47.515Z,17.6
2017-09-30T03:35:49.139Z,17.6
2017-09-30T03:36:50.763Z,17.5
2017-09-30T03:37:52.384Z,17.5
2017-09-30T03:38:54.011Z,17.5
2017-09-30T03:39:55.635Z,17.5
2017-09-30T03:40:57.259Z,17.5
2017-09-30T03:41:58.883Z,17.5
2017-09-30T03:43:00.511Z,17.6
2017-09-30T03:44:02.135Z,17.7
2017-09-30T03:45:03.762Z,17.6
2017-09-30T03:46:05.385Z,17.5
2017-09-30T03:47:07.007Z,17.6
2017-09-30T03:48:08.633Z,17.6
2017-09-30T03:49:10.256Z,17.5
2017-09-30T03:50:11.877Z,17.5
2017-09-30T03:51:13.506Z,17.5
2017-09-30T03:52:15.128Z,17.5
2017-09-30T03:53:16.760Z,17.5
2017-09-30T03:54:18.382Z,17.5
2017-09-30T03:55:20.023Z,17.5
2017-09-30T03:56:21.635Z,17.6
2017-09-30T03:57:23.257Z,17.6
2017-09-30T03:58:24.879Z,17.5
2017-09-30T03:59:26.514Z,17.6
2017-09-30T04:00:28.136Z,17.5
2017-09-30T04:01:29.759Z,17.5
2017-09-30T04:02:31.387Z,17.6
2017-09-30T04:03:33.007Z,17.5
2017-09-30T04:04:34.631Z,17.6
2017-09-30T04:05:36.252Z,17.5
2017-09-30T04:06:37.873Z,17.5
2017-09-30T04:07:39.498Z,17.5
2017-09-30T04:08:41.122Z,17.5
2017-09-30T04:09:42.756Z,17.5
2017-09-30T04:10:44.399Z,17.4
2017-09-30T04:11:45.994Z,17.5
2017-09-30T04:12:47.615Z,17.5
2017-09-30T04:13:49.240Z,17.5
2017-09-30T04:14:50.865Z,17.5
2017-09-30T04:15:52.486Z,17.6
2017-09-30T04:16:54.111Z,17.5
2017-09-30T04:17:55.755Z,17.6
2017-09-30T04:18:57.354Z,17.4
2017-09-30T04:19:58.985Z,17.4
2017-09-30T04:21:00.607Z,17.2
2017-09-30T04:22:02.229Z,17.2
2017-09-30T04:23:03.854Z,17.3
2017-09-30T04:24:05.480Z,17.3
2017-09-30T04:25:07.099Z,17.3
2017-09-30T04:26:08.721Z,17.3
2017-09-30T04:27:10.344Z,17.4
2017-09-30T04:28:11.969Z,17.4
2017-09-30T04:29:13.593Z,17.4
2017-09-30T04:30:15.217Z,17.4
2017-09-30T04:31:16.841Z,17.4
2017-09-30T04:32:18.463Z,17.3
2017-09-30T04:33:20.082Z,17.3
2017-09-30T04:34:21.713Z,17.3
2017-09-30T04:35:23.345Z,17.3
2017-09-30T04:36:24.968Z,17.3
2017-09-30T04:37:26.593Z,17.3
2017-09-30T04:38:28.218Z,17.4
2017-09-30T04:39:29.839Z,17.3
2017-09-30T04:40:31.460Z,17.3
2017-09-30T04:41:33.082Z,17.2
2017-09-30T04:42:34.702Z,17.2
2017-09-30T04:43:36.329Z,17.3
2017-09-30T04:44:37.956Z,17.2
2017-09-30T04:45:39.577Z,17.3
2017-09-30T04:46:41.200Z,17.3
2017-09-30T04:47:42.820Z,17.3
2017-09-30T04:48:44.443Z,17.3
2017-09-30T04:49:46.071Z,17.3
2017-09-30T04:50:47.697Z,17.3
2017-09-30T04:51:49.316Z,17.3
2017-09-30T04:52:50.940Z,17.3
2017-09-30T04:53:52.562Z,17.4
2017-09-30T04:54:54.184Z,17.4
2017-09-30T04:55:55.804Z,17.5
2017-09-30T04:56:57.425Z,17.5
2017-09-30T04:57:59.049Z,17.5
2017-09-30T04:59:00.675Z,17.5
2017-09-30T05:00:02.301Z,17.6
2017-09-30T05:01:03.922Z,17.6
2017-09-30T05:02:05.543Z,17.5
2017-09-30T05:03:07.166Z,17.6
2017-09-30T05:04:08.788Z,17.6
2017-09-30T05:05:10.410Z,17.5
2017-09-30T05:06:12.036Z,17.6
2017-09-30T05:07:13.656Z,17.6
2017-09-30T05:08:15.277Z,17.6
2017-09-30T05:09:16.900Z,17.5
2017-09-30T05:10:18.521Z,17.6
2017-09-30T05:11:20.146Z,17.5
2017-09-30T05:12:21.768Z,17.6
2017-09-30T05:13:23.393Z,17.5
2017-09-30T05:14:25.016Z,17.4
2017-09-30T05:15:26.642Z,17.3
2017-09-30T05:16:28.267Z,17.3
2017-09-30T05:17:29.887Z,17.3
2017-09-30T05:18:31.514Z,17.3
2017-09-30T05:19:33.139Z,17.2
2017-09-30T05:20:34.763Z,17.3
2017-09-30T05:21:36.395Z,17.2
2017-09-30T05:22:38.016Z,17.3
2017-09-30T05:23:39.639Z,17.4
2017-09-30T05:24:41.264Z,17.4
2017-09-30T05:25:42.890Z,17.3
2017-09-30T05:26:44.519Z,17.3
2017-09-30T05:27:46.138Z,17.3
2017-09-30T05:28:47.761Z,17.4
2017-09-30T05:29:49.383Z,17.3
2017-09-30T05:30:51.009Z,17.3
2017-09-30T05:31:52.632Z,17.2
2017-09-30T05:32:55.109Z,17.2
2017-09-30T05:33:56.736Z,17.2
2017-09-30T05:34:58.359Z,17.3
2017-09-30T05:35:59.983Z,17.2
2017-09-30T05:37:01.605Z,17.1
2017-09-30T05:38:03.226Z,17.2
2017-09-30T05:39:04.845Z,17.2
2017-09-30T05:40:06.471Z,17.1
2017-09-30T05:41:08.095Z,17.2
2017-09-30T05:42:09.720Z,17.3
2017-09-30T05:43:11.346Z,17.3
2017-09-30T05:44:12.969Z,17.4
2017-09-30T05:45:14.593Z,17.4
2017-09-30T05:46:16.216Z,17.4
2017-09-30T05:47:17.842Z,17.4
2017-09-30T05:48:19.464Z,17.5
2017-09-30T05:49:21.092Z,17.6
2017-09-30T05:50:22.715Z,17.6
2017-09-30T05:51:24.343Z,17.6
2017-09-30T05:52:25.973Z,17.6
2017-09-30T05:53:27.609Z,17.6
2017-09-30T05:54:29.216Z,17.6
2017-09-30T05:55:30.850Z,17.6
2017-09-30T05:56:32.480Z,17.6
2017-09-30T05:57:34.109Z,17.6
2017-09-30T05:58:35.738Z,17.7
2017-09-30T05:59:37.364Z,17.6
2017-09-30T06:00:38.987Z,17.6
2017-09-30T06:01:40.612Z,17.5
2017-09-30T06:02:42.238Z,17.5
2017-09-30T06:03:43.865Z,17.5
2017-09-30T06:04:45.496Z,17.5
2017-09-30T06:05:47.115Z,17.5
2017-09-30T06:06:48.740Z,17.6
2017-09-30T06:07:50.363Z,17.5
2017-09-30T06:08:51.989Z,17.6
2017-09-30T06:09:53.616Z,17.5
2017-09-30T06:10:55.242Z,17.5
2017-09-30T06:11:56.875Z,17.6
2017-09-30T06:12:58.499Z,17.6
2017-09-30T06:14:00.128Z,17.6
2017-09-30T06:15:01.776Z,17.5
2017-09-30T06:16:03.406Z,17.6
2017-09-30T06:17:05.032Z,17.5
2017-09-30T06:18:06.660Z,17.6
2017-09-30T06:19:08.286Z,17.5
2017-09-30T06:20:09.911Z,17.5
2017-09-30T06:21:11.537Z,17.5
2017-09-30T06:22:13.160Z,17.6
2017-09-30T06:23:14.787Z,17.4
2017-09-30T06:24:16.629Z,17.5
2017-09-30T06:25:18.257Z,17.4
2017-09-30T06:26:19.885Z,17.4
2017-09-30T06:27:21.634Z,17.4
2017-09-30T06:28:23.093Z,17.4
2017-09-30T06:29:24.718Z,17.4
2017-09-30T06:30:26.343Z,17.4
2017-09-30T06:31:28.182Z,17.4
2017-09-30T06:32:29.805Z,17.4
2017-09-30T06:33:31.432Z,17.5
2017-09-30T06:34:33.055Z,17.4
2017-09-30T06:35:34.691Z,17.4
2017-09-30T06:36:36.316Z,17.4
2017-09-30T06:37:37.943Z,17.4
2017-09-30T06:38:39.574Z,17.3
2017-09-30T06:39:41.205Z,17.3
2017-09-30T06:40:42.826Z,17.2
2017-09-30T06:41:44.449Z,17.2
2017-09-30T06:42:46.072Z,17.1
2017-09-30T06:43:47.700Z,17.0
2017-09-30T06:44:49.327Z,17.0
2017-09-30T06:45:51.524Z,17.0
2017-09-30T06:46:53.149Z,17.0
2017-09-30T06:47:54.782Z,17.0
2017-09-30T06:48:56.411Z,16.9
2017-09-30T06:49:58.043Z,17.0
2017-09-30T06:50:59.666Z,17.1
2017-09-30T06:52:01.291Z,17.1
2017-09-30T06:53:02.920Z,17.1
2017-09-30T06:54:04.546Z,17.2
2017-09-30T06:55:06.175Z,17.2
2017-09-30T06:56:07.975Z,17.3
2017-09-30T06:57:09.603Z,17.2
2017-09-30T06:58:11.233Z,17.2
2017-09-30T06:59:12.861Z,17.3
2017-09-30T07:00:14.588Z,17.4
2017-09-30T07:01:16.219Z,17.4
2017-09-30T07:02:17.847Z,17.4
2017-09-30T07:03:19.480Z,17.4
2017-09-30T07:04:21.134Z,17.4
2017-09-30T07:05:22.754Z,17.4
2017-09-30T07:06:24.436Z,17.3
2017-09-30T07:07:26.063Z,17.3
2017-09-30T07:08:27.697Z,17.3
2017-09-30T07:09:29.348Z,17.2
2017-09-30T07:10:30.971Z,17.3
2017-09-30T07:11:32.611Z,17.3
2017-09-30T07:12:34.457Z,17.2
2017-09-30T07:13:36.068Z,17.2
2017-09-30T07:14:37.696Z,17.3
2017-09-30T07:15:39.324Z,17.3
2017-09-30T07:16:41.146Z,17.4
2017-09-30T07:17:42.774Z,17.4
2017-09-30T07:18:44.418Z,17.5
2017-09-30T07:19:46.044Z,17.6
2017-09-30T07:20:47.669Z,17.6
2017-09-30T07:21:49.298Z,17.6
2017-09-30T07:22:50.927Z,17.6
2017-09-30T07:23:53.005Z,17.7
2017-09-30T07:24:54.628Z,17.7
2017-09-30T07:25:56.786Z,17.8
2017-09-30T07:26:58.414Z,17.8
2017-09-30T07:28:00.039Z,17.8
2017-09-30T07:29:01.665Z,17.8
2017-09-30T07:30:03.300Z,17.8
2017-09-30T07:31:04.931Z,17.9
2017-09-30T07:32:06.555Z,17.9
2017-09-30T07:33:08.182Z,17.8
2017-09-30T07:34:09.807Z,17.8
2017-09-30T07:35:11.437Z,17.8
2017-09-30T07:36:15.377Z,17.7
2017-09-30T07:37:17.004Z,17.7
2017-09-30T07:38:19.058Z,17.7
2017-09-30T07:39:20.701Z,17.5
2017-09-30T07:40:22.324Z,17.6
2017-09-30T07:41:23.950Z,17.6
2017-09-30T07:42:25.581Z,17.5
2017-09-30T07:43:27.209Z,17.5
2017-09-30T07:44:29.382Z,17.4
2017-09-30T07:45:31.024Z,17.4
2017-09-30T07:46:32.646Z,17.3
2017-09-30T07:47:34.274Z,17.4
2017-09-30T07:48:35.903Z,17.4
2017-09-30T07:49:37.529Z,17.5
2017-09-30T07:50:39.158Z,17.3
2017-09-30T07:51:40.924Z,17.3
2017-09-30T07:52:42.581Z,17.2
2017-09-30T07:53:44.184Z,17.3
2017-09-30T07:54:45.811Z,17.3
2017-09-30T07:55:47.445Z,17.3
2017-09-30T07:56:49.070Z,17.2
2017-09-30T07:57:50.698Z,17.3
2017-09-30T07:58:52.326Z,17.3
2017-09-30T07:59:53.951Z,17.3
2017-09-30T08:00:55.589Z,17.3
2017-09-30T08:01:57.220Z,17.2
2017-09-30T08:02:58.836Z,17.3
2017-09-30T08:04:00.470Z,17.3
2017-09-30T08:05:02.435Z,17.3
2017-09-30T08:06:04.054Z,17.3
2017-09-30T08:07:05.679Z,17.2
2017-09-30T08:08:07.308Z,17.3
2017-09-30T08:09:08.934Z,17.3
2017-09-30T08:10:10.556Z,17.3
2017-09-30T08:11:12.213Z,17.3
2017-09-30T08:12:13.816Z,17.4
2017-09-30T08:13:15.464Z,17.4
2017-09-30T08:14:17.094Z,17.4
2017-09-30T08:15:18.720Z,17.4
2017-09-30T08:16:20.359Z,17.4
2017-09-30T08:17:21.981Z,17.4
2017-09-30T08:18:23.611Z,17.4
2017-09-30T08:19:25.278Z,17.5
2017-09-30T08:20:26.903Z,17.4
2017-09-30T08:21:28.607Z,17.6
2017-09-30T08:22:30.234Z,17.5
2017-09-30T08:23:31.858Z,17.6
2017-09-30T08:24:33.486Z,17.6
2017-09-30T08:25:35.111Z,17.5
2017-09-30T08:26:36.736Z,17.5
2017-09-30T08:27:38.360Z,17.6
2017-09-30T08:28:39.988Z,17.6
2017-09-30T08:29:41.619Z,17.6
2017-09-30T08:30:43.245Z,17.7
2017-09-30T08:31:44.870Z,17.6
2017-09-30T08:32:46.497Z,17.7
2017-09-30T08:33:48.125Z,17.8
2017-09-30T08:34:50.024Z,17.8
2017-09-30T08:35:53.224Z,17.8
2017-09-30T08:36:55.649Z,17.8
2017-09-30T08:37:57.823Z,17.8
2017-09-30T08:38:59.712Z,17.8
2017-09-30T08:40:01.338Z,17.9
2017-09-30T08:41:03.044Z,18.0
2017-09-30T08:42:05.949Z,17.9
2017-09-30T08:43:07.535Z,17.9
2017-09-30T08:44:09.167Z,17.9
2017-09-30T08:45:10.796Z,17.9
2017-09-30T08:46:12.831Z,17.9
2017-09-30T08:47:14.462Z,17.8
2017-09-30T08:48:16.129Z,17.8
2017-09-30T08:49:17.821Z,17.8
2017-09-30T08:50:19.531Z,17.8
2017-09-30T08:51:21.157Z,17.9
2017-09-30T08:52:22.788Z,17.8
2017-09-30T08:53:24.415Z,17.8
2017-09-30T08:54:26.043Z,17.8
2017-09-30T08:55:27.669Z,17.8
2017-09-30T08:56:29.322Z,17.9
2017-09-30T08:57:30.952Z,17.9
2017-09-30T08:58:32.581Z,17.9
2017-09-30T08:59:34.211Z,17.9
2017-09-30T09:00:35.835Z,17.9
2017-09-30T09:01:37.472Z,18.0
2017-09-30T09:02:39.101Z,18.0
2017-09-30T09:03:40.741Z,18.2
2017-09-30T09:04:42.378Z,18.2
2017-09-30T09:05:44.004Z,18.1
2017-09-30T09:06:45.633Z,18.1
2017-09-30T09:07:47.266Z,18.0
2017-09-30T09:08:48.892Z,17.9
2017-09-30T09:09:50.520Z,17.9
2017-09-30T09:10:52.149Z,17.9
2017-09-30T09:11:53.779Z,17.8
2017-09-30T09:12:56.202Z,17.8
2017-09-30T09:13:57.831Z,17.8
2017-09-30T09:14:59.454Z,17.7
2017-09-30T09:16:01.083Z,17.7
2017-09-30T09:17:02.710Z,17.7
2017-09-30T09:18:04.341Z,17.6
2017-09-30T09:19:05.970Z,17.6
2017-09-30T09:20:07.595Z,17.5
2017-09-30T09:21:09.221Z,17.6
2017-09-30T09:22:10.845Z,17.6
2017-09-30T09:23:12.473Z,17.6
2017-09-30T09:24:14.099Z,17.6
2017-09-30T09:25:15.731Z,17.6
2017-09-30T09:26:17.359Z,17.6
2017-09-30T09:27:18.982Z,17.6
2017-09-30T09:28:20.608Z,17.5
2017-09-30T09:29:22.235Z,17.5
2017-09-30T09:30:23.862Z,17.5
2017-09-30T09:31:25.486Z,17.4
2017-09-30T09:32:27.118Z,17.5
2017-09-30T09:33:28.746Z,17.5
2017-09-30T09:34:30.373Z,17.4
2017-09-30T09:35:31.998Z,17.4
2017-09-30T09:36:33.626Z,17.5
2017-09-30T09:37:35.256Z,17.5
2017-09-30T09:38:36.887Z,17.5
2017-09-30T09:39:38.518Z,17.5
2017-09-30T09:40:40.148Z,17.5
2017-09-30T09:41:41.778Z,17.5
2017-09-30T09:42:43.405Z,17.5
2017-09-30T09:43:45.036Z,17.5
2017-09-30T09:44:46.667Z,17.5
2017-09-30T09:45:48.306Z,17.5
2017-09-30T09:46:49.935Z,17.5
2017-09-30T09:47:51.568Z,17.5
2017-09-30T09:48:53.193Z,17.5
2017-09-30T09:49:54.824Z,17.6
2017-09-30T09:50:56.455Z,17.6
2017-09-30T09:51:58.082Z,17.5
2017-09-30T09:52:59.711Z,17.5
2017-09-30T09:54:01.341Z,17.4
2017-09-30T09:55:02.971Z,17.5
2017-09-30T09:56:04.605Z,17.5
2017-09-30T09:57:06.231Z,17.4
2017-09-30T09:58:07.856Z,17.5
2017-09-30T09:59:09.482Z,17.4
2017-09-30T10:00:11.113Z,17.4
2017-09-30T10:01:12.744Z,17.4
2017-09-30T10:02:14.371Z,17.4
2017-09-30T10:03:16.004Z,17.4
2017-09-30T10:04:17.631Z,17.4
2017-09-30T10:05:19.259Z,17.4
2017-09-30T10:06:20.887Z,17.4
2017-09-30T10:07:22.521Z,17.3
2017-09-30T10:08:24.145Z,17.4
2017-09-30T10:09:25.778Z,17.3
2017-09-30T10:10:27.402Z,17.4
2017-09-30T10:11:29.033Z,17.3
2017-09-30T10:12:30.657Z,17.3
2017-09-30T10:13:32.287Z,17.3
2017-09-30T10:14:33.916Z,17.3
2017-09-30T10:15:35.542Z,17.3
2017-09-30T10:16:37.173Z,17.3
2017-09-30T10:17:38.799Z,17.3
2017-09-30T10:18:40.428Z,17.2
2017-09-30T10:19:42.054Z,17.2
2017-09-30T10:20:43.681Z,17.2
2017-09-30T10:21:45.308Z,17.3
2017-09-30T10:22:46.937Z,17.2
2017-09-30T10:23:48.574Z,16.9
2017-09-30T10:24:50.201Z,16.9
2017-09-30T10:25:51.829Z,16.9
2017-09-30T10:26:53.457Z,16.7
2017-09-30T10:27:55.083Z,16.6
2017-09-30T10:28:56.710Z,16.5
2017-09-30T10:29:58.336Z,16.5
2017-09-30T10:30:59.961Z,16.4
2017-09-30T10:32:01.585Z,16.3
2017-09-30T10:33:03.210Z,16.4
2017-09-30T10:34:04.837Z,16.3
2017-09-30T10:35:06.465Z,16.3
2017-09-30T10:36:08.096Z,16.2
2017-09-30T10:37:09.723Z,16.3
2017-09-30T10:38:11.352Z,16.3
2017-09-30T10:39:12.979Z,16.3
2017-09-30T10:40:14.636Z,16.3
2017-09-30T10:41:16.257Z,16.2
2017-09-30T10:42:17.888Z,16.2
2017-09-30T10:43:19.510Z,16.1
2017-09-30T10:44:21.141Z,16.2
2017-09-30T10:45:22.771Z,16.2
2017-09-30T10:46:24.396Z,16.2
2017-09-30T10:47:26.021Z,16.2
2017-09-30T10:48:27.646Z,16.2
2017-09-30T10:49:29.270Z,16.2
2017-09-30T10:50:30.896Z,16.2
2017-09-30T10:51:32.521Z,16.1
2017-09-30T10:52:34.150Z,16.1
2017-09-30T10:53:35.773Z,16.0
2017-09-30T10:54:37.399Z,16.0
2017-09-30T10:55:39.029Z,16.0
2017-09-30T10:56:40.655Z,16.0
2017-09-30T10:57:42.281Z,16.0
2017-09-30T10:58:43.907Z,16.0
2017-09-30T10:59:45.535Z,16.0
2017-09-30T11:00:47.159Z,16.1
2017-09-30T11:01:48.791Z,16.2
2017-09-30T11:02:50.419Z,16.2
2017-09-30T11:03:52.049Z,16.2
2017-09-30T11:04:53.671Z,16.0
2017-09-30T11:05:55.297Z,16.0
2017-09-30T11:06:56.925Z,16.0
2017-09-30T11:07:58.551Z,16.0
2017-09-30T11:09:00.178Z,16.0
2017-09-30T11:10:01.797Z,16.0
2017-09-30T11:11:03.423Z,16.1
2017-09-30T11:12:05.051Z,16.2
2017-09-30T11:13:06.678Z,16.2
2017-09-30T11:14:08.306Z,16.2
2017-09-30T11:15:09.933Z,16.2
2017-09-30T11:16:11.560Z,16.2
2017-09-30T11:17:13.184Z,16.4
2017-09-30T11:18:14.819Z,16.3
2017-09-30T11:19:16.437Z,16.4
2017-09-30T11:20:18.073Z,16.3
2017-09-30T11:21:19.693Z,16.5
2017-09-30T11:22:21.318Z,16.3
2017-09-30T11:23:22.946Z,16.4
2017-09-30T11:24:24.572Z,16.5
2017-09-30T11:25:26.200Z,16.4
2017-09-30T11:26:27.830Z,16.4
2017-09-30T11:27:29.458Z,16.5
2017-09-30T11:28:31.087Z,16.5
2017-09-30T11:29:32.717Z,16.3
2017-09-30T11:30:34.346Z,16.3
2017-09-30T11:31:35.973Z,16.3
2017-09-30T11:32:37.602Z,16.4
2017-09-30T11:33:39.231Z,16.5
2017-09-30T11:34:40.861Z,16.4
2017-09-30T11:35:42.489Z,16.5
2017-09-30T11:36:44.116Z,16.6
2017-09-30T11:37:45.743Z,16.5
2017-09-30T11:38:47.372Z,16.4
2017-09-30T11:39:48.997Z,16.4
2017-09-30T11:40:50.626Z,16.5
2017-09-30T11:41:52.260Z,16.5
2017-09-30T11:42:53.884Z,16.5
2017-09-30T11:43:55.513Z,16.5
2017-09-30T11:44:57.141Z,16.5
2017-09-30T11:45:58.767Z,16.5
2017-09-30T11:47:00.392Z,16.5
2017-09-30T11:48:02.026Z,16.5
2017-09-30T11:49:03.653Z,16.6
2017-09-30T11:50:05.295Z,16.3
2017-09-30T11:51:06.921Z,16.5
2017-09-30T11:52:08.551Z,16.3
2017-09-30T11:53:10.179Z,16.4
2017-09-30T11:54:11.809Z,16.4
2017-09-30T11:55:13.436Z,16.4
2017-09-30T11:56:15.066Z,16.4
2017-09-30T11:57:16.697Z,16.5
2017-09-30T11:58:18.356Z,16.3
2017-09-30T11:59:19.987Z,16.4
2017-09-30T12:00:21.615Z,16.3
2017-09-30T12:01:23.242Z,16.5
2017-09-30T12:02:24.877Z,16.4
2017-09-30T12:03:26.509Z,16.4
2017-09-30T12:04:28.143Z,16.6
2017-09-30T12:05:29.774Z,16.6
2017-09-30T12:06:31.413Z,16.5
2017-09-30T12:07:33.043Z,16.5
2017-09-30T12:08:34.682Z,16.5
2017-09-30T12:09:36.311Z,16.5
2017-09-30T12:10:37.963Z,16.4
2017-09-30T12:11:39.571Z,16.5
2017-09-30T12:12:41.201Z,16.4
2017-09-30T12:13:42.829Z,16.4
2017-09-30T12:14:44.463Z,16.4
2017-09-30T12:15:46.090Z,16.4
2017-09-30T12:16:47.835Z,16.3
2017-09-30T12:17:49.468Z,16.3
2017-09-30T12:18:51.097Z,16.4
2017-09-30T12:19:52.742Z,16.3
2017-09-30T12:20:54.360Z,16.3
2017-09-30T12:21:55.990Z,16.3
2017-09-30T12:22:57.617Z,16.3
2017-09-30T12:23:59.245Z,16.2
2017-09-30T12:25:00.871Z,16.3
2017-09-30T12:26:02.502Z,16.2
2017-09-30T12:27:04.126Z,16.2
2017-09-30T12:28:05.760Z,16.3
2017-09-30T12:29:07.387Z,16.3
2017-09-30T12:30:09.033Z,16.3
2017-09-30T12:31:10.660Z,16.3
2017-09-30T12:32:12.288Z,16.3
2017-09-30T12:33:13.917Z,16.3
2017-09-30T12:34:15.546Z,16.2
2017-09-30T12:35:17.173Z,16.3
2017-09-30T12:36:18.813Z,16.3
2017-09-30T12:37:20.430Z,16.3
2017-09-30T12:38:22.056Z,16.3
2017-09-30T12:39:23.690Z,16.2
2017-09-30T12:40:25.318Z,16.2
2017-09-30T12:41:26.942Z,16.2
2017-09-30T12:42:28.568Z,16.2
2017-09-30T12:43:30.195Z,16.1
2017-09-30T12:44:31.818Z,16.0
